Airfield :
LOGIN :

Register | Disclaimer

   EN    FR    IT 

 










Legend :    VFR   Marginal VFR   IFR   Intensive IFR   Very Intensive IFR
Visi :
Ceiling :
>= 8 km
>= 3000ft
5 to 8 km
1000 to 3000 ft
1500m to 5 km
500 to 1000 ft
800 to 1500m
200 to 500 ft
< 800m
< 200 ft
Symbols :   Thunderstorms  Fog  Heavy snow  Heavy precipitations  Wind > 20 kt
SIGMETs :     Misc.  Thunderstorms  Icing  Turbulence  Mountain Waves  Volcanic Ashes







- Airport Elevation : 1106 ft
- Download approach charts


LFSO - Nancy / Ochey

CURRENT METAR :
  • 222000Z AUTO 05012KT 9999 OVC046 M00/M07 Q1015 BECMG 04015G25KT

EXPIRED METARs :
  • 221930Z AUTO 05014KT 010V070 9999 OVC047 00/M07 Q1015 BECMG 04015G25KT
  • 221900Z AUTO 04012KT 9999 OVC047 00/M07 Q1015 BECMG 04015G25KT
  • 221830Z AUTO 04012KT 9999 OVC048 00/M07 Q1015 BECMG 04015G25KT
  • 221800Z AUTO 05011KT 020V080 9999 FEW049 SCT092 00/M07 Q1014 BECMG 04015G25KT
  • 221730Z AUTO 04012KT 020V080 CAVOK 01/M09 Q1014 BECMG 04015G25KT

TAF TAF LFSO
Valid from the 22 at 15:00 until the 23 at 15:00 UTC


221400Z 2215/2315 04015G25KT 9999 SCT040
BECMG 2303/2305 BKN014
BECMG 2311/2313 BKN025
No reported NOTAMs for that airfield.



MET'MAP, your aeronautical weather chart ! - Copyright ORBIFLY December 2007 - Disclaimer

ORBIFLY MET'MAP TEAM :

Programming & Development : Alexandra Zaïnal
Concept & Development : Baudouin d'Aumeries
Co-Development & Prog : Marc-Olivier Méhu
Technical & hardware support : Manuel Goepfert

Contact : metmap@orbifly.com




SOURCES & CREDITS :

   NOAA